createdAt,value
2019-05-14T00:01:36.863Z,3.30
2019-05-14T00:06:41.917Z,3.27
2019-05-14T00:11:46.481Z,3.27
2019-05-14T00:16:51.406Z,3.30
2019-05-14T00:21:56.056Z,3.07
2019-05-14T00:27:02.084Z,3.13
2019-05-14T00:32:06.778Z,3.40
2019-05-14T00:37:11.677Z,3.60
2019-05-14T00:42:16.425Z,4.50
2019-05-14T00:47:21.771Z,3.80
2019-05-14T00:52:26.314Z,4.20
2019-05-14T00:57:31.604Z,3.97
2019-05-14T01:02:36.226Z,3.60
2019-05-14T01:07:42.373Z,3.80
2019-05-14T01:12:46.959Z,3.63
2019-05-14T01:17:51.803Z,4.10
2019-05-14T01:22:56.324Z,3.70
2019-05-14T01:28:02.084Z,3.30
2019-05-14T01:33:06.839Z,3.17
2019-05-14T01:38:11.563Z,3.70
2019-05-14T01:43:16.139Z,3.77
2019-05-14T01:48:21.957Z,3.87
2019-05-14T01:53:26.577Z,3.90
2019-05-14T01:58:31.986Z,3.60
2019-05-14T02:03:36.484Z,3.70
2019-05-14T02:08:41.451Z,4.00
2019-05-14T02:13:48.435Z,4.00
2019-05-14T02:18:52.418Z,3.63
2019-05-14T02:23:56.796Z,3.70
2019-05-14T02:29:02.081Z,3.70
2019-05-14T02:34:09.914Z,3.77
2019-05-14T02:39:12.871Z,3.40
2019-05-14T02:44:18.862Z,3.30
2019-05-14T02:49:23.440Z,3.50
2019-05-14T02:54:29.722Z,3.60
2019-05-14T02:59:34.003Z,3.67
2019-05-14T03:04:39.532Z,3.73
2019-05-14T03:09:44.512Z,3.40
2019-05-14T03:14:50.269Z,3.53
2019-05-14T03:19:55.033Z,3.43
2019-05-14T03:24:59.896Z,3.20
2019-05-14T03:30:05.741Z,3.30
2019-05-14T03:35:13.202Z,3.10
2019-05-14T03:40:19.483Z,3.50
2019-05-14T03:45:23.299Z,3.00
2019-05-14T03:50:29.831Z,3.50
2019-05-14T03:55:34.034Z,3.43
2019-05-14T04:00:52.042Z,4.23
2019-05-14T04:05:59.552Z,4.80
2019-05-14T04:11:04.452Z,5.77
2019-05-14T04:16:11.696Z,5.47
2019-05-14T04:21:20.261Z,3.87
2019-05-14T04:26:24.084Z,4.53
2019-05-14T04:31:32.761Z,5.77
2019-05-14T04:36:39.249Z,5.93
2019-05-14T04:41:43.903Z,6.40
2019-05-14T04:46:49.304Z,6.80
2019-05-14T04:51:54.015Z,6.27
2019-05-14T04:56:59.953Z,8.93
2019-05-14T05:02:09.223Z,13.40
2019-05-14T05:07:12.216Z,14.03
2019-05-14T05:12:19.462Z,17.07
2019-05-14T05:17:37.814Z,13.90
2019-05-14T05:22:28.999Z,14.97
2019-05-14T05:27:33.428Z,16.00
2019-05-14T05:32:38.868Z,16.83
2019-05-14T05:37:43.640Z,12.17
2019-05-14T05:42:48.980Z,11.03
2019-05-14T05:47:58.194Z,13.47
2019-05-14T05:52:59.847Z,11.50
2019-05-14T05:58:04.342Z,13.73
2019-05-14T06:03:11.246Z,13.50
2019-05-14T06:08:16.077Z,10.23
2019-05-14T06:13:20.576Z,8.53
2019-05-14T06:18:24.993Z,6.40
2019-05-14T06:23:29.610Z,6.60
2019-05-14T06:28:40.303Z,5.90
2019-05-14T06:33:42.930Z,5.10
2019-05-14T06:38:49.748Z,4.00
2019-05-14T06:43:55.930Z,4.00
2019-05-14T06:49:03.705Z,4.63
2019-05-14T06:54:09.252Z,3.87
2019-05-14T06:59:18.315Z,3.37
2019-05-14T07:04:22.742Z,3.70
2019-05-14T07:09:30.009Z,3.03
2019-05-14T07:14:34.433Z,3.23
2019-05-14T07:19:42.027Z,2.93
2019-05-14T07:24:49.380Z,2.70
2019-05-14T07:29:54.334Z,2.50
2019-05-14T07:34:59.625Z,3.70
2019-05-14T07:40:08.556Z,2.40
2019-05-14T07:45:13.432Z,2.50
2019-05-14T07:50:20.488Z,2.97
2019-05-14T07:55:25.005Z,2.00
2019-05-14T08:00:33.677Z,2.30
2019-05-14T08:05:39.926Z,2.13
2019-05-14T08:10:48.491Z,2.13
2019-05-14T08:15:53.984Z,2.20
2019-05-14T08:20:59.178Z,2.40
2019-05-14T08:26:04.842Z,2.10
2019-05-14T08:31:11.869Z,1.90
2019-05-14T08:36:18.337Z,1.90
2019-05-14T08:41:22.654Z,1.87
2019-05-14T08:46:28.724Z,1.50
2019-05-14T08:51:33.150Z,1.67
2019-05-14T08:56:38.960Z,1.70
2019-05-14T09:01:58.498Z,1.67
2019-05-14T09:06:51.519Z,1.77
2019-05-14T09:11:59.733Z,1.67
2019-05-14T09:17:03.631Z,1.40
2019-05-14T09:22:09.585Z,1.50
2019-05-14T09:27:15.993Z,1.40
2019-05-14T09:32:20.855Z,1.20
2019-05-14T09:37:25.294Z,1.20
2019-05-14T09:42:30.012Z,1.13
2019-05-14T09:47:34.497Z,1.30
2019-05-14T09:52:39.373Z,1.30
2019-05-14T09:57:45.386Z,1.20
2019-05-14T10:02:49.880Z,1.53
2019-05-14T10:07:54.318Z,1.70
2019-05-14T10:13:01.515Z,1.50
2019-05-14T10:18:11.129Z,1.40
2019-05-14T10:23:14.569Z,1.20
2019-05-14T10:28:22.373Z,1.40
2019-05-14T10:33:28.789Z,1.17
2019-05-14T10:38:33.130Z,1.27
2019-05-14T10:43:39.149Z,0.80
2019-05-14T10:48:43.873Z,1.10
2019-05-14T10:53:49.037Z,1.03
2019-05-14T10:58:55.313Z,0.90
2019-05-14T11:04:01.517Z,1.50
2019-05-14T11:09:09.094Z,1.40
2019-05-14T11:14:13.874Z,1.60
2019-05-14T11:19:18.942Z,1.13
2019-05-14T11:24:23.898Z,1.47
2019-05-14T11:29:29.887Z,1.10
2019-05-14T11:34:34.575Z,1.10
2019-05-14T11:39:39.211Z,1.23
2019-05-14T11:44:43.895Z,1.20
2019-05-14T11:49:49.222Z,1.43
2019-05-14T11:54:54.131Z,1.30
2019-05-14T11:59:58.689Z,1.23
2019-05-14T12:05:03.327Z,1.50
2019-05-14T12:10:09.168Z,1.40
2019-05-14T12:15:14.026Z,1.13
2019-05-14T12:20:18.774Z,1.30
2019-05-14T12:25:23.197Z,1.27
2019-05-14T12:30:28.619Z,1.30
2019-05-14T12:35:33.498Z,1.07
2019-05-14T12:40:38.378Z,1.10
2019-05-14T12:45:42.900Z,1.40
2019-05-14T12:50:48.837Z,1.10
2019-05-14T12:55:53.516Z,1.47
2019-05-14T13:00:59.452Z,1.60
2019-05-14T13:06:04.133Z,1.40
2019-05-14T13:11:09.639Z,1.40
2019-05-14T13:16:14.480Z,0.90
2019-05-14T13:21:19.377Z,1.40
2019-05-14T13:26:23.997Z,1.40
2019-05-14T13:31:29.234Z,1.27
2019-05-14T13:36:34.124Z,1.10
2019-05-14T13:41:41.835Z,1.07
2019-05-14T13:46:48.455Z,0.97
2019-05-14T13:51:51.994Z,0.80
2019-05-14T13:56:58.508Z,0.90
2019-05-14T14:02:02.891Z,1.00
2019-05-14T14:07:09.054Z,0.97
2019-05-14T14:12:13.985Z,1.10
2019-05-14T14:17:18.809Z,1.00
2019-05-14T14:22:23.222Z,1.00
2019-05-14T14:27:29.979Z,1.30
2019-05-14T14:32:34.201Z,1.03
2019-05-14T14:37:40.017Z,1.20
2019-05-14T14:42:44.765Z,1.00
2019-05-14T14:47:49.828Z,1.10
2019-05-14T14:52:54.423Z,0.90
2019-05-14T14:57:59.094Z,1.30
2019-05-14T15:03:03.607Z,1.27
2019-05-14T15:08:10.357Z,1.10
2019-05-14T15:13:14.363Z,1.10
2019-05-14T15:18:19.109Z,1.13
2019-05-14T15:23:24.121Z,1.10
2019-05-14T15:28:28.849Z,1.10
2019-05-14T15:33:34.302Z,0.93
2019-05-14T15:38:40.709Z,1.00
2019-05-14T15:43:45.462Z,0.70
2019-05-14T15:48:50.129Z,1.27
2019-05-14T15:54:15.583Z,0.97
2019-05-14T15:59:04.316Z,1.20
2019-05-14T16:04:11.524Z,1.07
2019-05-14T16:09:15.486Z,1.00
2019-05-14T16:14:20.105Z,1.20
2019-05-14T16:19:24.780Z,1.00
2019-05-14T16:24:29.203Z,1.13
2019-05-14T16:29:41.269Z,1.07
2019-05-14T16:34:41.319Z,1.10
2019-05-14T16:39:49.089Z,1.50
2019-05-14T16:44:53.543Z,1.30
2019-05-14T16:49:59.120Z,1.10
2019-05-14T16:55:20.551Z,1.10
2019-05-14T17:00:11.691Z,1.30
2019-05-14T17:05:16.523Z,1.17
2019-05-14T17:10:21.107Z,1.20
2019-05-14T17:15:25.569Z,1.40
2019-05-14T17:20:30.258Z,1.07
2019-05-14T17:25:34.869Z,1.20
2019-05-14T17:30:39.449Z,1.40
2019-05-14T17:35:44.089Z,1.30
2019-05-14T17:40:48.970Z,1.20
2019-05-14T17:45:53.738Z,1.20
2019-05-14T17:50:59.133Z,1.50
2019-05-14T17:56:04.039Z,1.60
2019-05-14T18:01:10.361Z,1.27
2019-05-14T18:06:15.019Z,1.40
2019-05-14T18:11:21.111Z,1.30
2019-05-14T18:16:25.677Z,1.20
2019-05-14T18:21:30.342Z,1.30
2019-05-14T18:26:35.069Z,1.57
2019-05-14T18:31:44.164Z,1.40
2019-05-14T18:36:48.703Z,1.10
2019-05-14T18:41:52.513Z,1.30
2019-05-14T18:46:59.326Z,1.50
2019-05-14T18:52:03.827Z,1.20
2019-05-14T18:57:11.805Z,1.43
2019-05-14T19:02:14.786Z,1.73
2019-05-14T19:07:19.373Z,2.00
2019-05-14T19:12:24.867Z,2.07
2019-05-14T19:17:29.414Z,1.80
2019-05-14T19:22:33.987Z,1.60
2019-05-14T19:27:38.493Z,1.30
2019-05-14T19:32:42.980Z,1.43
2019-05-14T19:37:48.710Z,1.63
2019-05-14T19:42:53.417Z,1.60
2019-05-14T19:47:58.425Z,1.73
2019-05-14T19:53:03.137Z,1.70
2019-05-14T19:58:07.784Z,2.77
2019-05-14T20:03:12.420Z,1.77
2019-05-14T20:08:18.935Z,1.80
2019-05-14T20:13:23.223Z,1.60
2019-05-14T20:18:28.966Z,1.83
2019-05-14T20:23:33.867Z,1.70
2019-05-14T20:28:39.058Z,2.07
2019-05-14T20:33:43.785Z,2.10
2019-05-14T20:38:48.309Z,1.77
2019-05-14T20:43:52.789Z,1.93
2019-05-14T20:48:59.129Z,2.20
2019-05-14T20:54:03.454Z,1.90
2019-05-14T20:59:10.423Z,1.97
2019-05-14T21:04:14.892Z,2.30
2019-05-14T21:09:19.384Z,1.97
2019-05-14T21:14:25.254Z,2.10
2019-05-14T21:19:29.702Z,2.27
2019-05-14T21:24:34.119Z,2.93
2019-05-14T21:29:38.646Z,2.40
2019-05-14T21:34:43.148Z,2.50
2019-05-14T21:39:49.113Z,2.37
2019-05-14T21:44:53.584Z,2.40
2019-05-14T21:49:58.070Z,2.33
2019-05-14T21:55:02.565Z,2.10
2019-05-14T22:00:20.579Z,2.37
2019-05-14T22:05:25.602Z,2.37
2019-05-14T22:10:30.247Z,2.43
2019-05-14T22:15:34.812Z,2.80
2019-05-14T22:20:39.237Z,2.43
2019-05-14T22:25:43.659Z,2.20
2019-05-14T22:30:48.270Z,2.57
2019-05-14T22:35:52.767Z,2.20
2019-05-14T22:40:59.205Z,2.37
2019-05-14T22:46:03.408Z,2.50
2019-05-14T22:51:08.694Z,2.77
2019-05-14T22:56:13.367Z,2.90
2019-05-14T23:01:18.515Z,3.00
2019-05-14T23:06:23.153Z,2.67
2019-05-14T23:11:28.818Z,2.33
2019-05-14T23:16:38.282Z,2.53
2019-05-14T23:21:39.687Z,2.30
2019-05-14T23:26:44.174Z,3.10
2019-05-14T23:31:49.015Z,2.90
2019-05-14T23:36:53.798Z,2.60
2019-05-14T23:41:58.583Z,3.20
2019-05-14T23:47:02.965Z,3.10
2019-05-14T23:52:07.545Z,2.63
2019-05-14T23:57:11.947Z,2.97
